createdAt,value
2022-10-06T00:00:31.548Z,1.25
2022-10-06T00:03:02.256Z,1.70
2022-10-06T00:07:55.407Z,1.27
2022-10-06T00:10:21.684Z,1.48
2022-10-06T00:12:49.896Z,1.95
2022-10-06T00:15:17.785Z,2.00
2022-10-06T00:17:44.036Z,1.70
2022-10-06T00:20:10.553Z,1.50
2022-10-06T00:22:38.015Z,1.55
2022-10-06T00:25:04.802Z,1.85
2022-10-06T00:27:38.230Z,1.52
2022-10-06T00:30:05.466Z,1.98
2022-10-06T00:32:32.033Z,1.92
2022-10-06T00:35:01.250Z,1.33
2022-10-06T00:37:28.281Z,1.67
2022-10-06T00:39:54.966Z,1.90
2022-10-06T00:42:25.636Z,1.88
2022-10-06T00:44:53.442Z,1.60
2022-10-06T00:47:21.255Z,1.60
2022-10-06T00:49:47.601Z,1.75
2022-10-06T00:52:15.933Z,1.55
2022-10-06T00:54:42.743Z,1.90
2022-10-06T00:57:09.089Z,2.00
2022-10-06T00:59:36.221Z,1.50
2022-10-06T01:02:03.222Z,1.60
2022-10-06T01:04:33.503Z,1.30
2022-10-06T01:07:00.174Z,1.73
2022-10-06T01:09:26.863Z,1.35
2022-10-06T01:11:54.264Z,1.98
2022-10-06T01:14:21.367Z,1.70
2022-10-06T01:16:49.594Z,1.70
2022-10-06T01:19:29.254Z,2.13
2022-10-06T01:21:57.377Z,1.65
2022-10-06T01:24:23.665Z,1.90
2022-10-06T01:26:51.300Z,2.17
2022-10-06T01:29:18.298Z,1.45
2022-10-06T01:31:44.585Z,1.75
2022-10-06T01:34:10.940Z,1.77
2022-10-06T01:36:39.342Z,1.60
2022-10-06T01:39:05.589Z,1.63
2022-10-06T01:41:34.152Z,2.00
2022-10-06T01:44:00.599Z,1.63
2022-10-06T01:46:28.554Z,1.83
2022-10-06T01:48:54.882Z,1.40
2022-10-06T01:51:21.178Z,1.67
2022-10-06T01:53:47.410Z,1.55
2022-10-06T01:56:13.858Z,1.90
2022-10-06T01:58:40.119Z,1.80
2022-10-06T02:01:07.217Z,1.98
2022-10-06T02:03:35.783Z,1.40
2022-10-06T02:06:02.259Z,1.15
2022-10-06T02:08:28.924Z,1.98
2022-10-06T02:10:55.399Z,1.65
2022-10-06T02:13:24.329Z,1.75
2022-10-06T02:15:51.690Z,1.42
2022-10-06T02:18:24.231Z,1.73
2022-10-06T02:20:50.742Z,1.95
2022-10-06T02:23:28.574Z,1.73
2022-10-06T02:26:05.999Z,1.77
2022-10-06T02:28:33.144Z,1.58
2022-10-06T02:31:01.193Z,1.88
2022-10-06T02:33:27.464Z,1.60
2022-10-06T02:35:54.263Z,1.50
2022-10-06T02:38:20.502Z,2.05
2022-10-06T02:40:46.735Z,1.55
2022-10-06T02:43:12.980Z,1.73
2022-10-06T02:45:39.285Z,1.50
2022-10-06T02:48:05.573Z,1.85
2022-10-06T02:50:32.402Z,1.55
2022-10-06T02:52:58.652Z,1.55
2022-10-06T02:55:24.901Z,1.45
2022-10-06T02:57:51.178Z,1.75
2022-10-06T03:00:17.551Z,1.60
2022-10-06T03:02:43.969Z,1.88
2022-10-06T03:05:10.402Z,1.55
2022-10-06T03:07:36.650Z,1.65
2022-10-06T03:10:03.062Z,1.75
2022-10-06T03:12:29.956Z,1.40
2022-10-06T03:14:56.180Z,1.75
2022-10-06T03:17:22.504Z,3.20
2022-10-06T03:19:48.746Z,1.55
2022-10-06T03:22:15.184Z,1.25
2022-10-06T03:24:41.558Z,1.85
2022-10-06T03:27:07.958Z,1.60
2022-10-06T03:29:35.090Z,1.60
2022-10-06T03:32:01.453Z,1.70
2022-10-06T03:34:27.882Z,1.73
2022-10-06T03:36:54.409Z,1.52
2022-10-06T03:39:20.726Z,1.30
2022-10-06T03:41:47.058Z,1.50
2022-10-06T03:44:13.381Z,1.63
2022-10-06T03:46:39.743Z,1.60
2022-10-06T03:49:06.165Z,1.63
2022-10-06T03:51:37.588Z,2.08
2022-10-06T03:54:04.550Z,1.63
2022-10-06T03:56:31.940Z,1.40
2022-10-06T03:59:01.791Z,1.67
2022-10-06T04:01:35.541Z,1.63
2022-10-06T04:04:02.338Z,1.77
2022-10-06T04:06:29.442Z,1.45
2022-10-06T04:08:56.240Z,1.25
2022-10-06T04:11:23.916Z,1.48
2022-10-06T04:13:54.174Z,1.58
2022-10-06T04:16:22.372Z,1.67
2022-10-06T04:18:50.754Z,1.60
2022-10-06T04:21:17.456Z,1.50
2022-10-06T04:23:43.702Z,1.65
2022-10-06T04:26:12.646Z,1.40
2022-10-06T04:28:39.443Z,1.50
2022-10-06T04:31:26.098Z,1.73
2022-10-06T04:33:53.662Z,1.40
2022-10-06T04:36:24.215Z,1.38
2022-10-06T04:38:50.848Z,1.42
2022-10-06T04:41:18.196Z,1.80
2022-10-06T04:43:45.074Z,1.58
2022-10-06T04:46:37.661Z,1.40
2022-10-06T04:48:57.988Z,2.58
2022-10-06T04:51:25.941Z,2.13
2022-10-06T04:53:52.359Z,1.73
2022-10-06T04:56:20.762Z,1.58
2022-10-06T04:58:48.358Z,1.27
2022-10-06T05:01:22.018Z,1.70
2022-10-06T05:03:49.230Z,1.55
2022-10-06T05:06:17.245Z,2.22
2022-10-06T05:08:46.762Z,1.30
2022-10-06T05:11:15.088Z,1.42
2022-10-06T05:13:43.180Z,1.23
2022-10-06T05:16:12.141Z,1.23
2022-10-06T05:18:51.050Z,1.30
2022-10-06T05:21:17.318Z,1.48
2022-10-06T05:23:44.069Z,1.95
2022-10-06T05:26:11.013Z,2.10
2022-10-06T05:28:37.524Z,1.90
2022-10-06T05:31:09.833Z,2.63
2022-10-06T05:33:36.112Z,1.73
2022-10-06T05:36:06.705Z,2.08
2022-10-06T05:38:33.629Z,1.40
2022-10-06T05:41:13.162Z,1.60
2022-10-06T05:43:39.744Z,1.63
2022-10-06T05:46:07.771Z,1.77
2022-10-06T05:48:34.106Z,1.58
2022-10-06T05:51:01.470Z,1.77
2022-10-06T05:53:29.291Z,1.80
2022-10-06T05:56:09.120Z,1.70
2022-10-06T05:58:36.314Z,1.73
2022-10-06T06:01:13.198Z,2.92
2022-10-06T06:03:40.064Z,2.08
2022-10-06T06:06:17.266Z,1.77
2022-10-06T06:08:43.481Z,1.65
2022-10-06T06:11:10.054Z,1.63
2022-10-06T06:13:36.751Z,1.70
2022-10-06T06:16:04.454Z,1.58
2022-10-06T06:18:32.465Z,1.75
2022-10-06T06:21:00.118Z,1.45
2022-10-06T06:23:30.920Z,2.00
2022-10-06T06:31:19.740Z,1.60
2022-10-06T06:33:47.498Z,1.38
2022-10-06T06:36:26.938Z,2.00
2022-10-06T06:38:54.223Z,2.30
2022-10-06T06:41:24.661Z,2.15
2022-10-06T06:43:52.702Z,2.05
2022-10-06T06:46:20.618Z,1.98
2022-10-06T06:48:47.103Z,3.13
2022-10-06T06:51:13.821Z,2.10
2022-10-06T06:53:40.406Z,2.15
2022-10-06T06:56:08.301Z,2.13
2022-10-06T06:58:37.978Z,1.73
2022-10-06T07:01:14.200Z,2.17
2022-10-06T07:03:57.168Z,1.73
2022-10-06T07:06:28.060Z,1.67
2022-10-06T07:08:55.257Z,2.25
2022-10-06T07:11:26.220Z,2.00
2022-10-06T07:13:53.841Z,2.13
2022-10-06T07:16:39.378Z,2.13
2022-10-06T07:19:26.831Z,1.80
2022-10-06T07:22:13.121Z,1.90
2022-10-06T07:24:57.909Z,2.85
2022-10-06T07:27:24.448Z,2.03
2022-10-06T07:29:55.278Z,1.60
2022-10-06T07:32:22.867Z,2.05
2022-10-06T07:34:49.754Z,2.40
2022-10-06T07:37:16.702Z,2.08
2022-10-06T07:39:44.895Z,2.13
2022-10-06T07:42:15.151Z,1.98
2022-10-06T07:45:09.155Z,2.17
2022-10-06T07:47:38.092Z,2.65
2022-10-06T07:50:08.209Z,2.40
2022-10-06T07:52:39.007Z,1.75
2022-10-06T07:57:34.601Z,2.08
2022-10-06T08:00:03.267Z,1.98
2022-10-06T08:02:31.559Z,2.03
2022-10-06T08:05:01.062Z,1.70
2022-10-06T08:07:27.314Z,2.28
2022-10-06T08:09:54.716Z,1.45
2022-10-06T08:12:33.214Z,1.75
2022-10-06T08:15:07.033Z,2.75
2022-10-06T08:17:39.362Z,1.95
2022-10-06T08:20:06.563Z,1.92
2022-10-06T08:22:33.246Z,1.63
2022-10-06T08:25:07.240Z,2.67
2022-10-06T08:27:35.111Z,2.10
2022-10-06T08:30:01.950Z,1.55
2022-10-06T08:32:28.282Z,2.13
2022-10-06T08:34:54.794Z,1.60
2022-10-06T08:37:23.800Z,2.50
2022-10-06T08:39:53.603Z,2.03
2022-10-06T08:42:32.532Z,1.77
2022-10-06T08:45:00.221Z,1.83
2022-10-06T08:47:33.469Z,2.03
2022-10-06T08:50:00.026Z,2.13
2022-10-06T08:52:46.189Z,2.00
2022-10-06T08:55:12.427Z,1.80
2022-10-06T08:57:41.352Z,2.05
2022-10-06T09:00:11.748Z,1.98
2022-10-06T09:02:42.175Z,1.58
2022-10-06T09:05:09.587Z,2.28
2022-10-06T09:07:41.866Z,1.70
2022-10-06T09:10:27.104Z,1.80
2022-10-06T09:13:06.665Z,1.83
2022-10-06T09:15:36.136Z,1.63
2022-10-06T09:18:10.491Z,1.55
2022-10-06T09:20:39.799Z,2.13
2022-10-06T09:23:12.323Z,1.70
2022-10-06T09:25:41.323Z,1.80
2022-10-06T09:28:11.115Z,1.80
2022-10-06T09:30:37.415Z,1.13
2022-10-06T09:33:05.709Z,2.15
2022-10-06T09:35:32.405Z,2.15
2022-10-06T09:38:07.871Z,2.13
2022-10-06T09:40:54.535Z,2.35
2022-10-06T09:43:27.640Z,1.60
2022-10-06T09:45:54.833Z,1.67
2022-10-06T09:48:25.526Z,1.67
2022-10-06T09:53:18.425Z,1.88
2022-10-06T09:55:46.578Z,1.77
2022-10-06T09:58:23.373Z,2.13
2022-10-06T10:00:49.815Z,1.65
2022-10-06T10:03:16.182Z,1.70
2022-10-06T10:05:50.316Z,1.33
2022-10-06T10:08:22.263Z,1.38
2022-10-06T10:10:49.701Z,1.58
2022-10-06T10:13:22.149Z,1.40
2022-10-06T10:15:52.308Z,1.48
2022-10-06T10:18:22.880Z,1.83
2022-10-06T10:20:59.748Z,2.03
2022-10-06T10:23:31.951Z,2.42
2022-10-06T10:26:08.087Z,1.58
2022-10-06T10:28:53.213Z,1.77
2022-10-06T10:31:31.105Z,1.60
2022-10-06T10:34:24.687Z,0.98
2022-10-06T10:36:54.090Z,1.30
2022-10-06T10:39:32.807Z,1.77
2022-10-06T10:42:02.486Z,1.23
2022-10-06T10:44:34.878Z,1.27
2022-10-06T10:47:06.994Z,0.95
2022-10-06T10:49:34.898Z,1.67
2022-10-06T10:52:05.326Z,1.10
2022-10-06T10:54:37.562Z,1.50
2022-10-06T10:57:04.621Z,1.23
2022-10-06T10:59:30.844Z,1.35
2022-10-06T11:01:57.160Z,1.30
2022-10-06T11:04:23.543Z,1.80
2022-10-06T11:06:55.550Z,1.70
2022-10-06T11:09:43.222Z,1.48
2022-10-06T11:12:28.227Z,1.30
2022-10-06T11:14:56.074Z,2.58
2022-10-06T11:17:44.591Z,1.38
2022-10-06T11:20:29.727Z,1.60
2022-10-06T11:22:59.568Z,1.60
2022-10-06T11:25:31.257Z,1.58
2022-10-06T11:28:12.314Z,1.27
2022-10-06T11:31:05.214Z,1.60
2022-10-06T11:33:43.963Z,1.10
2022-10-06T11:36:25.837Z,0.98
2022-10-06T11:39:12.020Z,1.40
2022-10-06T11:41:42.436Z,1.38
2022-10-06T11:44:28.385Z,1.33
2022-10-06T11:46:56.832Z,1.48
2022-10-06T11:49:29.340Z,1.48
2022-10-06T11:51:59.114Z,1.40
2022-10-06T11:54:47.125Z,1.20
2022-10-06T11:57:26.294Z,1.50
2022-10-06T12:00:03.374Z,1.30
2022-10-06T12:02:32.802Z,1.02
2022-10-06T12:05:55.254Z,1.02
2022-10-06T12:08:00.929Z,1.15
2022-10-06T12:10:27.166Z,1.20
2022-10-06T12:13:13.894Z,1.20
2022-10-06T12:18:46.051Z,1.20
2022-10-06T12:21:14.627Z,1.05
2022-10-06T12:24:05.171Z,1.30
2022-10-06T12:29:13.117Z,1.33
2022-10-06T12:31:42.482Z,1.45
2022-10-06T12:34:27.487Z,1.40
2022-10-06T12:37:13.732Z,1.75
2022-10-06T12:39:40.301Z,1.23
2022-10-06T12:42:07.582Z,1.35
2022-10-06T12:44:38.023Z,1.67
2022-10-06T12:47:08.552Z,1.10
2022-10-06T12:52:26.304Z,1.10
2022-10-06T12:55:18.904Z,1.10
2022-10-06T12:57:46.647Z,1.10
2022-10-06T13:00:34.700Z,1.58
2022-10-06T13:03:02.619Z,0.88
2022-10-06T13:05:29.684Z,1.52
2022-10-06T13:07:57.331Z,1.20
2022-10-06T13:10:24.069Z,1.15
2022-10-06T13:13:04.117Z,1.05
2022-10-06T13:15:36.922Z,1.15
2022-10-06T13:18:03.163Z,1.13
2022-10-06T13:20:41.678Z,1.30
2022-10-06T13:23:17.161Z,1.00
2022-10-06T13:25:48.556Z,1.20
2022-10-06T13:28:21.381Z,1.02
2022-10-06T13:30:54.262Z,1.52
2022-10-06T13:33:21.202Z,1.35
2022-10-06T13:35:49.328Z,1.20
2022-10-06T13:38:15.660Z,1.10
2022-10-06T13:40:44.977Z,1.50
2022-10-06T13:43:14.733Z,1.00
2022-10-06T13:45:42.346Z,1.10
2022-10-06T13:48:14.006Z,1.60
2022-10-06T13:50:44.483Z,1.02
2022-10-06T13:55:36.950Z,1.00
2022-10-06T13:58:06.621Z,1.25
2022-10-06T14:00:48.763Z,1.38
2022-10-06T14:03:20.507Z,1.52
2022-10-06T14:05:46.771Z,1.35
2022-10-06T14:08:13.066Z,1.30
2022-10-06T14:10:46.460Z,1.20
2022-10-06T14:13:23.789Z,1.08
2022-10-06T14:15:59.225Z,1.10
2022-10-06T14:18:42.768Z,1.48
2022-10-06T14:21:18.391Z,1.25
2022-10-06T14:23:49.552Z,0.90
2022-10-06T14:26:18.372Z,1.33
2022-10-06T14:28:47.907Z,1.08
2022-10-06T14:31:16.026Z,1.08
2022-10-06T14:33:43.402Z,1.27
2022-10-06T14:36:21.109Z,1.10
2022-10-06T14:38:48.581Z,1.40
2022-10-06T14:41:19.021Z,1.00
2022-10-06T14:43:58.115Z,1.00
2022-10-06T14:46:26.014Z,1.08
2022-10-06T14:48:53.306Z,1.63
2022-10-06T14:51:22.176Z,2.17
2022-10-06T14:53:56.467Z,0.98
2022-10-06T14:56:24.083Z,1.13
2022-10-06T14:58:52.803Z,1.02
2022-10-06T15:01:20.758Z,1.00
2022-10-06T15:03:51.255Z,1.20
2022-10-06T15:09:03.166Z,0.93
2022-10-06T15:11:29.523Z,0.88
2022-10-06T15:13:57.948Z,0.93
2022-10-06T15:16:25.003Z,0.73
2022-10-06T15:18:51.748Z,0.52
2022-10-06T15:21:18.903Z,0.77
2022-10-06T15:23:45.670Z,1.00
2022-10-06T15:26:30.680Z,0.82
2022-10-06T15:29:05.845Z,1.10
2022-10-06T15:31:36.676Z,0.70
2022-10-06T15:34:04.481Z,0.77
2022-10-06T15:36:33.573Z,1.00
2022-10-06T15:39:03.043Z,0.65
2022-10-06T15:41:29.299Z,0.80
2022-10-06T15:43:55.612Z,0.70
2022-10-06T15:46:26.095Z,1.23
2022-10-06T15:48:53.356Z,0.70
2022-10-06T15:51:20.278Z,1.10
2022-10-06T15:53:46.531Z,0.80
2022-10-06T15:56:12.776Z,1.23
2022-10-06T15:58:39.725Z,1.10
2022-10-06T16:01:08.753Z,0.90
2022-10-06T16:03:40.797Z,0.95
2022-10-06T16:06:09.008Z,1.13
2022-10-06T16:08:35.670Z,1.13
2022-10-06T16:11:02.287Z,1.17
2022-10-06T16:13:28.649Z,1.00
2022-10-06T16:15:55.503Z,1.20
2022-10-06T16:18:21.860Z,0.95
2022-10-06T16:20:51.989Z,1.13
2022-10-06T16:23:18.379Z,0.98
2022-10-06T16:25:44.761Z,1.13
2022-10-06T16:28:11.115Z,0.98
2022-10-06T16:30:37.491Z,0.82
2022-10-06T16:33:03.985Z,1.00
2022-10-06T16:35:30.274Z,1.00
2022-10-06T16:37:56.512Z,0.90
2022-10-06T16:40:23.082Z,1.38
2022-10-06T16:42:50.945Z,1.40
2022-10-06T16:45:17.196Z,1.15
2022-10-06T16:47:43.721Z,1.10
2022-10-06T16:50:10.094Z,1.20
2022-10-06T16:52:36.735Z,1.45
2022-10-06T16:55:03.306Z,1.38
2022-10-06T16:57:29.647Z,0.93
2022-10-06T16:59:55.889Z,1.25
2022-10-06T17:02:22.145Z,0.88
2022-10-06T17:04:48.407Z,1.13
2022-10-06T17:07:14.675Z,1.27
2022-10-06T17:09:51.077Z,1.02
2022-10-06T17:12:27.367Z,1.13
2022-10-06T17:14:53.628Z,1.10
2022-10-06T17:17:19.905Z,1.17
2022-10-06T17:19:46.146Z,1.30
2022-10-06T17:22:13.596Z,1.33
2022-10-06T17:24:39.931Z,1.27
2022-10-06T17:27:10.246Z,2.60
2022-10-06T17:29:36.542Z,3.78
2022-10-06T17:32:02.854Z,3.90
2022-10-06T17:34:36.244Z,2.70
2022-10-06T17:37:03.686Z,2.45
2022-10-06T17:39:30.201Z,2.28
2022-10-06T17:41:56.714Z,1.80
2022-10-06T17:44:33.297Z,2.15
2022-10-06T17:47:00.453Z,1.50
2022-10-06T17:49:45.338Z,1.77
2022-10-06T17:52:12.756Z,1.10
2022-10-06T17:54:41.379Z,1.20
2022-10-06T17:57:09.756Z,1.30
2022-10-06T17:59:35.992Z,1.90
2022-10-06T18:02:02.965Z,1.48
2022-10-06T18:04:32.168Z,2.80
2022-10-06T18:06:59.316Z,2.92
2022-10-06T18:09:25.890Z,3.28
2022-10-06T18:11:56.790Z,2.88
2022-10-06T18:14:27.552Z,6.03
2022-10-06T18:16:57.449Z,9.35
2022-10-06T18:19:26.623Z,8.85
2022-10-06T18:21:54.136Z,7.35
2022-10-06T18:24:22.221Z,8.70
2022-10-06T18:26:49.607Z,6.45
2022-10-06T18:29:17.049Z,3.70
2022-10-06T18:31:44.083Z,2.88
2022-10-06T18:36:59.957Z,2.47
2022-10-06T18:39:26.321Z,2.00
2022-10-06T18:41:52.657Z,1.65
2022-10-06T18:44:38.855Z,1.50
2022-10-06T18:47:23.759Z,1.98
2022-10-06T18:49:50.157Z,1.40
2022-10-06T18:52:17.304Z,1.48
2022-10-06T18:54:44.697Z,1.88
2022-10-06T18:57:12.775Z,2.03
2022-10-06T18:59:39.740Z,1.83
2022-10-06T19:02:06.133Z,1.90
2022-10-06T19:04:33.448Z,1.70
2022-10-06T19:06:59.697Z,2.08
2022-10-06T19:09:26.230Z,2.03
2022-10-06T19:11:55.719Z,2.20
2022-10-06T19:14:32.603Z,2.50
2022-10-06T19:17:00.431Z,2.40
2022-10-06T19:19:28.254Z,3.03
2022-10-06T19:21:59.615Z,2.60
2022-10-06T19:24:27.353Z,2.90
2022-10-06T19:26:56.438Z,3.55
2022-10-06T19:29:23.782Z,3.33
2022-10-06T19:31:51.072Z,3.03
2022-10-06T19:34:18.305Z,3.83
2022-10-06T19:36:50.796Z,4.15
2022-10-06T19:39:17.373Z,5.97
2022-10-06T19:42:02.317Z,5.70
2022-10-06T19:44:28.604Z,4.82
2022-10-06T19:46:55.223Z,5.30
2022-10-06T19:49:21.915Z,5.43
2022-10-06T19:51:49.358Z,5.70
2022-10-06T19:54:17.508Z,7.00
2022-10-06T19:56:45.855Z,6.32
2022-10-06T19:59:16.530Z,6.15
2022-10-06T20:01:43.016Z,5.15
2022-10-06T20:04:09.349Z,6.43
2022-10-06T20:06:36.096Z,5.35
2022-10-06T20:09:06.669Z,4.43
2022-10-06T20:11:36.501Z,3.88
2022-10-06T20:14:09.269Z,3.55
2022-10-06T20:16:36.850Z,3.15
2022-10-06T20:19:03.183Z,3.30
2022-10-06T20:21:30.902Z,2.83
2022-10-06T20:23:58.430Z,2.92
2022-10-06T20:26:26.406Z,3.10
2022-10-06T20:28:53.436Z,2.83
2022-10-06T20:31:21.449Z,2.72
2022-10-06T20:33:50.256Z,3.17
2022-10-06T20:36:17.494Z,2.75
2022-10-06T20:39:03.118Z,2.78
2022-10-06T20:41:29.783Z,2.72
2022-10-06T20:43:57.431Z,2.88
2022-10-06T20:46:33.792Z,2.50
2022-10-06T20:49:03.499Z,2.95
2022-10-06T20:51:31.344Z,3.10
2022-10-06T20:53:57.895Z,2.80
2022-10-06T20:56:25.639Z,2.85
2022-10-06T20:58:52.235Z,3.30
2022-10-06T21:01:20.529Z,2.75
2022-10-06T21:03:48.657Z,3.10
2022-10-06T21:06:15.676Z,3.10
2022-10-06T21:08:45.771Z,2.70
2022-10-06T21:11:13.100Z,2.83
2022-10-06T21:13:40.108Z,2.88
2022-10-06T21:16:06.957Z,3.17
2022-10-06T21:18:33.725Z,3.28
2022-10-06T21:21:03.157Z,2.92
2022-10-06T21:23:29.816Z,2.75
2022-10-06T21:25:56.817Z,3.55
2022-10-06T21:28:25.416Z,3.20
2022-10-06T21:30:53.564Z,3.50
2022-10-06T21:33:22.805Z,2.97
2022-10-06T21:35:58.690Z,3.22
2022-10-06T21:38:25.465Z,3.40
2022-10-06T21:40:52.807Z,2.85
2022-10-06T21:43:19.213Z,3.28
2022-10-06T21:45:57.019Z,3.28
2022-10-06T21:48:35.537Z,3.60
2022-10-06T21:51:01.807Z,3.00
2022-10-06T21:53:28.027Z,3.38
2022-10-06T21:55:54.679Z,3.38
2022-10-06T21:58:21.000Z,3.70
2022-10-06T22:00:47.275Z,3.67
2022-10-06T22:03:13.664Z,3.22
2022-10-06T22:05:39.923Z,4.18
2022-10-06T22:08:06.213Z,3.10
2022-10-06T22:10:32.437Z,3.55
2022-10-06T22:12:58.675Z,3.30
2022-10-06T22:15:24.907Z,3.22
2022-10-06T22:17:51.246Z,3.47
2022-10-06T22:20:17.492Z,3.42
2022-10-06T22:22:43.777Z,3.15
2022-10-06T22:25:10.049Z,3.35
2022-10-06T22:27:36.331Z,3.95
2022-10-06T22:30:02.696Z,3.20
2022-10-06T22:32:29.031Z,3.78
2022-10-06T22:34:57.632Z,3.72
2022-10-06T22:37:23.872Z,3.40
2022-10-06T22:39:50.172Z,3.45
2022-10-06T22:42:16.514Z,3.10
2022-10-06T22:44:42.734Z,2.88
2022-10-06T22:47:09.114Z,3.30
2022-10-06T22:49:35.444Z,3.30
2022-10-06T22:52:01.715Z,3.50
2022-10-06T22:54:29.942Z,4.15
2022-10-06T22:56:56.789Z,3.90
2022-10-06T22:59:23.136Z,3.65
2022-10-06T23:01:49.338Z,4.05
2022-10-06T23:04:16.242Z,3.83
2022-10-06T23:06:42.496Z,4.05
2022-10-06T23:09:08.755Z,3.60
2022-10-06T23:11:34.993Z,3.80
2022-10-06T23:14:01.233Z,3.95
2022-10-06T23:16:27.486Z,3.60
2022-10-06T23:18:54.890Z,3.55
2022-10-06T23:21:22.743Z,3.75
2022-10-06T23:23:50.063Z,4.15
2022-10-06T23:26:18.850Z,4.45
2022-10-06T23:28:46.885Z,3.80
2022-10-06T23:31:13.302Z,3.72
2022-10-06T23:33:39.632Z,3.20
2022-10-06T23:36:07.353Z,3.90
2022-10-06T23:38:34.144Z,3.60
2022-10-06T23:41:00.451Z,3.80
2022-10-06T23:43:29.106Z,4.03
2022-10-06T23:45:56.119Z,3.83
2022-10-06T23:48:22.499Z,4.43
2022-10-06T23:50:55.645Z,4.05
2022-10-06T23:53:22.014Z,3.97
2022-10-06T23:55:48.304Z,4.28
2022-10-06T23:58:14.746Z,3.95
